sensor_id;sensor_type;location;lat;lon;timestamp;pressure;altitude;pressure_sealevel;temperature;humidity
71642;BME280;60657;50.122;14.468;2023-05-16T00:01:03;97717.6412953612;;;13.934157320515752;67.97383077744716
71642;BME280;60657;50.122;14.468;2023-05-16T00:04:16;97716.71237497;;;13.982223239490345;68.11497672999161
71642;BME280;60657;50.122;14.468;2023-05-16T00:07:28;97714.35068463969;;;13.923476005188064;68.21034561684596
71642;BME280;60657;50.122;14.468;2023-05-16T00:10:39;97723.61063613906;;;13.838025482566565;68.59182116426337
71642;BME280;60657;50.122;14.468;2023-05-16T00:13:51;97728.89182889191;;;13.725871671625846;69.38529030289159
71642;BME280;60657;50.122;14.468;2023-05-16T00:17:04;97731.6301416429;;;13.621728847180897;70.36568245975432
71642;BME280;60657;50.122;14.468;2023-05-16T00:20:16;97730.18280659294;;;13.546959639887085;71.14579995422294
71642;BME280;60657;50.122;14.468;2023-05-16T00:23:28;97726.13328993336;;;13.485542076752878;71.7103837644007
71642;BME280;60657;50.122;14.468;2023-05-16T00:26:40;97724.42195588973;;;13.530937666895554;71.63790341039139
71642;BME280;60657;50.122;14.468;2023-05-16T00:29:52;97731.1039301903;;;13.461509117265585;71.75616083009079
71642;BME280;60657;50.122;14.468;2023-05-16T00:33:04;97732.02433413788;;;13.504234378576335;71.92401007095445
71642;BME280;60657;50.122;14.468;2023-05-16T00:36:16;97737.91469377822;;;13.421454184786754;72.39894712748912
71642;BME280;60657;50.122;14.468;2023-05-16T00:39:28;97739.75178279729;;;13.360036621652554;72.86816205081254
71642;BME280;60657;50.122;14.468;2023-05-16T00:42:40;97738.10542889399;;;13.352025635156785;73.07034409094378
71642;BME280;60657;50.122;14.468;2023-05-16T00:45:52;97738.26199551238;;;13.29594872968643;73.3469138628214
71642;BME280;60657;50.122;14.468;2023-05-16T00:49:04;97751.80270249241;;;13.18646524757763;73.75509269855802
71642;BME280;60657;50.122;14.468;2023-05-16T00:52:16;97748.59929674288;;;13.106355382619974;74.27962157625696
71642;BME280;60657;50.122;14.468;2023-05-16T00:55:28;97751.06952199766;;;13.079652094300755;74.4360265506981
71642;BME280;60657;50.122;14.468;2023-05-16T00:58:43;97744.54188565789;;;13.031586175326161;74.70496681162737
71642;BME280;60657;50.122;14.468;2023-05-16T01:01:55;97744.83449173288;;;12.895399404898143;75.13794155794614
71642;BME280;60657;50.122;14.468;2023-05-16T01:05:07;97738.1889609009;;;12.908751049057756;75.22758831158923
71642;BME280;60657;50.122;14.468;2023-05-16T01:08:20;97738.83723577965;;;12.978179598687724;75.0101472495613
71642;BME280;60657;50.122;14.468;2023-05-16T01:11:33;97748.77721139874;;;13.01556420233463;74.937666895552
71642;BME280;60657;50.122;14.468;2023-05-16T01:14:55;97752.071074831;;;13.036926832990005;74.75455863279164
71642;BME280;60657;50.122;14.468;2023-05-16T01:18:20;97753.8351327602;;;12.978179598687724;75.10551613641566
71642;BME280;60657;50.122;14.468;2023-05-16T01:21:44;97762.24411211564;;;12.927443350881205;75.2180514229038
71642;BME280;60657;50.122;14.468;2023-05-16T01:25:03;97755.51125382645;;;12.954146639200424;75.39543755245289
71642;BME280;60657;50.122;14.468;2023-05-16T01:28:25;97752.95325620536;;;12.994201571679255;75.07499809262227
71642;BME280;60657;50.122;14.468;2023-05-16T01:31:38;97761.53448714143;;;12.879377431906612;75.46982528419929
71642;BME280;60657;50.122;14.468;2023-05-16T01:34:50;97759.83042655504;;;12.932784008545049;75.31151293202106
71642;BME280;60657;50.122;14.468;2023-05-16T01:38:04;97761.59096061475;;;12.84733348592355;74.87090867475395
71642;BME280;60657;50.122;14.468;2023-05-16T01:41:26;97765.98696518881;;;12.70046540016785;74.29678797589075
71642;BME280;60657;50.122;14.468;2023-05-16T01:44:48;97755.22363674182;;;12.697795071335925;74.10032806897078
71642;BME280;60657;50.122;14.468;2023-05-16T01:48:12;97751.1051526939;;;12.689784084840163;74.10223544670787
71642;BME280;60657;50.122;14.468;2023-05-16T01:51:31;97757.03393217435;;;12.639047837033644;74.01258869306477
71642;BME280;60657;50.122;14.468;2023-05-16T01:54:47;97755.33249200309;;;12.673762111848632;73.84092469672694
71642;BME280;60657;50.122;14.468;2023-05-16T01:58:04;97761.09878217378;;;12.695124742504007;73.16571297779812
71642;BME280;60657;50.122;14.468;2023-05-16T02:01:24;97756.2101653678;;;12.652399481193257;73.07415884641794
71642;BME280;60657;50.122;14.468;2023-05-16T02:04:41;97751.0227439437;;;12.759212634470131;72.78042267490653
71642;BME280;60657;50.122;14.468;2023-05-16T02:07:53;97746.76564753709;;;12.82063019760433;72.20820935378042
71642;BME280;60657;50.122;14.468;2023-05-16T02:11:05;97755.05776615914;;;12.817959868772412;71.97741664759289
71642;BME280;60657;50.122;14.468;2023-05-16T02:14:17;97757.47269877545;;;12.839322499427787;71.96406500343328
71642;BME280;60657;50.122;14.468;2023-05-16T02:17:29;97765.02549413807;;;12.812619211108569;72.07087815671015
71642;BME280;60657;50.122;14.468;2023-05-16T02:20:41;97775.07607399212;;;12.791256580453194;72.4027618829633
71642;BME280;60657;50.122;14.468;2023-05-16T02:23:53;97771.94313511378;;;12.652399481193257;73.20386053253986
71642;BME280;60657;50.122;14.468;2023-05-16T02:27:05;97786.36950972783;;;12.452124818799113;73.90768291752498
71642;BME280;60657;50.122;14.468;2023-05-16T02:30:17;97785.02180958561;;;12.307927061875333;74.69161516746776
71642;BME280;60657;50.122;14.468;2023-05-16T02:33:30;97786.88752354507;;;12.129015030136571;75.12077515831236
71642;BME280;60657;50.122;14.468;2023-05-16T02:36:42;97787.73551994901;;;12.185091935606927;74.97009231708248
71642;BME280;60657;50.122;14.468;2023-05-16T02:39:56;97775.13197352027;;;12.281223773556114;74.94529640650035
71642;BME280;60657;50.122;14.468;2023-05-16T02:43:08;97767.59223335181;;;12.286564431219958;74.72594796673533
71642;BME280;60657;50.122;14.468;2023-05-16T02:46:21;97769.28972403969;;;12.289234760051883;74.58098725871672
71642;BME280;60657;50.122;14.468;2023-05-16T02:49:35;97764.29605574581;;;12.281223773556114;74.85755703059434
71642;BME280;60657;50.122;14.468;2023-05-16T02:52:47;97766.76818341184;;;12.273212787060352;74.81750209811551
71642;BME280;60657;50.122;14.468;2023-05-16T02:55:59;97772.43667115102;;;12.345311665522239;74.61913481345846
71642;BME280;60657;50.122;14.468;2023-05-16T02:59:11;97783.19984743743;;;12.396047913328758;74.44556343938353
71642;BME280;60657;50.122;14.468;2023-05-16T03:02:23;97788.21962524684;;;12.38536659800107;74.68780041199359
71642;BME280;60657;50.122;14.468;2023-05-16T03:05:40;97783.22490853471;;;12.36934462500954;74.9662775616083
71642;BME280;60657;50.122;14.468;2023-05-16T03:08:57;97784.1237171889;;;12.321278706034946;75.31151293202106
71642;BME280;60657;50.122;14.468;2023-05-16T03:12:09;97785.82141465203;;;12.329289692530708;75.84367132066835
71642;BME280;60657;50.122;14.468;2023-05-16T03:15:21;97784.07400725293;;;12.347981994354164;75.52323186083773
71642;BME280;60657;50.122;14.468;2023-05-16T03:18:34;97791.56597052753;;;12.36934462500954;75.62050812542915
71642;BME280;60657;50.122;14.468;2023-05-16T03:21:46;97785.96755494014;;;12.29991607537957;75.9981689173724
71642;BME280;60657;50.122;14.468;2023-05-16T03:24:58;97808.2956179022;;;12.305256733043414;76.12024109254597
71642;BME280;60657;50.122;14.468;2023-05-16T03:28:10;97805.701201491;;;12.34264133669032;76.1736476691844
71642;BME280;60657;50.122;14.468;2023-05-16T03:31:22;97799.83283230742;;;12.393377584496832;76.28427557793546
71642;BME280;60657;50.122;14.468;2023-05-16T03:34:34;97814.84205657856;;;12.372014953841457;76.12405584802015
71642;BME280;60657;50.122;14.468;2023-05-16T03:37:46;97813.99332812983;;;12.380025940337227;76.04776073853667
71642;BME280;60657;50.122;14.468;2023-05-16T03:40:58;97823.23087220147;;;12.297245746547645;76.38727397573815
71642;BME280;60657;50.122;14.468;2023-05-16T03:44:12;97816.65914225233;;;12.329289692530708;76.2327763790341
71642;BME280;60657;50.122;14.468;2023-05-16T03:47:25;97834.02079471608;;;12.382696269169145;76.15648126955062
71642;BME280;60657;50.122;14.468;2023-05-16T03:50:37;97831.47560676528;;;12.412069886320289;76.14312962539101
71642;BME280;60657;50.122;14.468;2023-05-16T03:53:49;97840.6171568202;;;12.425421530479895;76.28999771114671
71642;BME280;60657;50.122;14.468;2023-05-16T03:57:01;97846.55440664306;;;12.347981994354164;76.46547646295872
71642;BME280;60657;50.122;14.468;2023-05-16T04:00:13;97848.25018710215;;;12.31860837720302;76.75921263447013
71642;BME280;60657;50.122;14.468;2023-05-16T04:03:26;97842.4544176931;;;12.294575417715727;76.90035858701457
71642;BME280;60657;50.122;14.468;2023-05-16T04:06:38;97848.18034857944;;;12.374685282673383;76.91752498664836
71642;BME280;60657;50.122;14.468;2023-05-16T04:09:51;97851.4082475944;;;12.460135805294883;76.61425192645152
71642;BME280;60657;50.122;14.468;2023-05-16T04:13:03;97854.75412784287;;;12.396047913328758;76.99000534065766
71642;BME280;60657;50.122;14.468;2023-05-16T04:16:15;97857.93373027998;;;12.521553368429082;76.55512321660181
71642;BME280;60657;50.122;14.468;2023-05-16T04:19:27;97853.76243728954;;;12.529564354924851;76.26710917830167
71642;BME280;60657;50.122;14.468;2023-05-16T04:22:39;97851.9421259423;;;12.59899290455482;75.9085221637293
71642;BME280;60657;50.122;14.468;2023-05-16T04:25:51;97856.9878848186;;;12.609674219882507;75.75974670023652
71642;BME280;60657;50.122;14.468;2023-05-16T04:29:04;97863.65791009508;;;12.59899290455482;75.93713282978561
71642;BME280;60657;50.122;14.468;2023-05-16T04:32:16;97866.0585730291;;;12.663080796520944;75.97528038452735
71642;BME280;60657;50.122;14.468;2023-05-16T04:35:28;97861.81183663064;;;12.703135728999769;75.54993514915694
71642;BME280;60657;50.122;14.468;2023-05-16T04:38:40;97867.45775356703;;;12.815289539940487;75.61097123674372
71642;BME280;60657;50.122;14.468;2023-05-16T04:41:52;97863.07683238272;;;12.940794995040818;75.49843595025558
71642;BME280;60657;50.122;14.468;2023-05-16T04:45:05;97872.01294319639;;;13.098344396124212;75.13984893568322
71642;BME280;60657;50.122;14.468;2023-05-16T04:48:18;97869.26773564122;;;13.237201495384149;74.38834210727093
71642;BME280;60657;50.122;14.468;2023-05-16T04:51:30;97865.66175887063;;;13.333333333333336;74.21667811093309
71642;BME280;60657;50.122;14.468;2023-05-16T04:54:42;97862.22136486885;;;13.368047608148316;74.03547722590982
71642;BME280;60657;50.122;14.468;2023-05-16T04:57:54;97850.97509754253;;;13.616388189517053;73.03791866941329
71642;BME280;60657;50.122;14.468;2023-05-16T05:01:07;97865.55932941967;;;13.880750743877314;72.36842908369573
71642;BME280;60657;50.122;14.468;2023-05-16T05:04:23;97876.08091166265;;;14.032959487296864;71.75616083009079
71642;BME280;60657;50.122;14.468;2023-05-16T05:07:35;97873.0552335139;;;14.217212176699476;70.8425268940261
71642;BME280;60657;50.122;14.468;2023-05-16T05:10:48;97872.03004458251;;;14.281300068665601;70.08339055466544
71642;BME280;60657;50.122;14.468;2023-05-16T05:14:00;97864.3442724328;;;14.398794537270163;70.02426184481575
71642;BME280;60657;50.122;14.468;2023-05-16T05:17:13;97866.35949805088;;;14.617761501487756;69.20981155107958
71642;BME280;60657;50.122;14.468;2023-05-16T05:20:25;97865.92597702198;;;14.780651560234986;68.65476462958725
71642;BME280;60657;50.122;14.468;2023-05-16T05:23:38;97877.3053783014;;;14.948882276646067;67.9547570000763
71642;BME280;60657;50.122;14.468;2023-05-16T05:26:51;97869.40633525711;;;15.08239871824216;67.5255970092317
71642;BME280;60657;50.122;14.468;2023-05-16T05:30:04;97862.43543789723;;;15.199893186846722;67.10597390707255
71642;BME280;60657;50.122;14.468;2023-05-16T05:33:17;97847.42546356171;;;15.173189898527504;66.79507133592736
71642;BME280;60657;50.122;14.468;2023-05-16T05:36:29;97862.66770933331;;;15.146486610208285;66.56046387426566
71642;BME280;60657;50.122;14.468;2023-05-16T05:39:41;97849.22773948954;;;15.14915693904021;66.85992217898833
71642;BME280;60657;50.122;14.468;2023-05-16T05:42:53;97843.07395114508;;;15.288014038300147;66.45555809872587
71642;BME280;60657;50.122;14.468;2023-05-16T05:46:05;97843.49524709368;;;15.370794232089722;66.12176699473564
71642;BME280;60657;50.122;14.468;2023-05-16T05:49:18;97849.8321662244;;;15.544365606164646;65.97489890897994
71642;BME280;60657;50.122;14.468;2023-05-16T05:52:30;97842.87647483821;;;15.667200732433052;66.91332875562676
71642;BME280;60657;50.122;14.468;2023-05-16T05:55:43;97848.2965812103;;;15.795376516365302;65.79560540169375
71642;BME280;60657;50.122;14.468;2023-05-16T05:58:55;97845.74331366274;;;15.760662241550314;65.61249713893339
71642;BME280;60657;50.122;14.468;2023-05-16T06:02:07;97838.03899344278;;;15.82207980468452;65.65827420462348
71642;BME280;60657;50.122;14.468;2023-05-16T06:05:19;97834.31166657105;;;15.952925917448688;65.08415350576028
71642;BME280;60657;50.122;14.468;2023-05-16T06:08:32;97835.86782943142;;;15.982299534599832;65.15281910429542
71642;BME280;60657;50.122;14.468;2023-05-16T06:11:44;97846.0017195072;;;15.936903944457157;65.53429465171283
71642;BME280;60657;50.122;14.468;2023-05-16T06:14:56;97842.22341797227;;;16.14518959334707;65.90814068818189
71642;BME280;60657;50.122;14.468;2023-05-16T06:18:13;97852.5968051166;;;16.337453269245444;64.7999542229343
71642;BME280;60657;50.122;14.468;2023-05-16T06:21:29;97849.52964762718;;;16.508354314488443;64.66262302586404
71642;BME280;60657;50.122;14.468;2023-05-16T06:24:41;97844.6604745109;;;16.735332265201798;64.0350957503624
71642;BME280;60657;50.122;14.468;2023-05-16T06:27:53;97839.047344159;;;16.999694819562066;63.65362020294499
71642;BME280;60657;50.122;14.468;2023-05-16T06:31:05;97843.22866489261;;;17.240024414435034;62.52826733806363
71642;BME280;60657;50.122;14.468;2023-05-16T06:34:18;97844.46395650839;;;17.384222171358815;62.86968795300221
71642;BME280;60657;50.122;14.468;2023-05-16T06:37:31;97842.19809116505;;;17.63523308155947;62.720912489509416
71642;BME280;60657;50.122;14.468;2023-05-16T06:40:43;97854.75938090296;;;17.832837415121688;60.80018310826276
71642;BME280;60657;50.122;14.468;2023-05-16T06:43:56;97843.26945773908;;;17.936980239566644;60.807812619211106
71642;BME280;60657;50.122;14.468;2023-05-16T06:47:08;97836.14837051294;;;18.1025406271458;60.76203555352102
71642;BME280;60657;50.122;14.468;2023-05-16T06:50:20;97844.58192042094;;;17.993057145037;60.245136186770424
71642;BME280;60657;50.122;14.468;2023-05-16T06:53:33;97847.21115951888;;;18.027771419851987;61.03860532539865
71642;BME280;60657;50.122;14.468;2023-05-16T06:56:45;97848.49888121412;;;18.342870222018767;59.54131380178531
71642;BME280;60657;50.122;14.468;2023-05-16T06:59:57;97845.5776260234;;;18.497749294270236;59.85412375066758
71642;BME280;60657;50.122;14.468;2023-05-16T07:03:09;97845.28846356481;;;18.532463569085223;59.4974441138323
71642;BME280;60657;50.122;14.468;2023-05-16T07:06:22;97841.18388978261;;;18.786144808117797;59.569924467841616
71642;BME280;60657;50.122;14.468;2023-05-16T07:09:34;97847.9278300706;;;18.682001983672848;59.3505760280766
71642;BME280;60657;50.122;14.468;2023-05-16T07:12:46;97846.8502474925;;;18.914320592050046;59.32768749523156
71642;BME280;60657;50.122;14.468;2023-05-16T07:15:58;97843.32444445486;;;19.007782101167322;58.83558403906309
71642;BME280;60657;50.122;14.468;2023-05-16T07:19:11;97840.7405771456;;;18.949034866865034;58.37209124895094
71642;BME280;60657;50.122;14.468;2023-05-16T07:22:23;97847.42750038326;;;19.029144731822697;58.07835507743954
71642;BME280;60657;50.122;14.468;2023-05-16T07:25:35;97839.37431369434;;;19.365606164644845;58.41596093690394
71642;BME280;60657;50.122;14.468;2023-05-16T07:28:48;97834.2628053614;;;19.272144655527583;57.73884184023804
71642;BME280;60657;50.122;14.468;2023-05-16T07:32:00;97845.1799659781;;;19.30685893034257;57.30586709391928
71642;BME280;60657;50.122;14.468;2023-05-16T07:35:13;97835.71309497675;;;19.408331425955595;57.46799420157168
71642;BME280;60657;50.122;14.468;2023-05-16T07:38:25;97847.260988977;;;19.31754024567026;57.374532692454416
71642;BME280;60657;50.122;14.468;2023-05-16T07:41:37;97845.55667494873;;;19.36026550698101;57.11894407568475
71642;BME280;60657;50.122;14.468;2023-05-16T07:44:49;97846.9866749001;;;19.76081483176928;57.801785305561914
71642;BME280;60657;50.122;14.468;2023-05-16T07:48:02;97852.75897200746;;;19.891660944533456;56.71457999542229
71642;BME280;60657;50.122;14.468;2023-05-16T07:51:14;97858.85949067166;;;19.62462806134127;56.09849698634318
71642;BME280;60657;50.122;14.468;2023-05-16T07:54:27;97865.55130195699;;;19.64332036316472;56.243457694361794
71642;BME280;60657;50.122;14.468;2023-05-16T07:57:39;97863.58636200104;;;19.774166475928894;57.20096131837949
71642;BME280;60657;50.122;14.468;2023-05-16T08:00:52;97863.78182616491;;;20.350957503624016;55.4614328221561
71642;BME280;60657;50.122;14.468;2023-05-16T08:04:04;97867.53668881793;;;20.164034485389493;56.71648737315938
71642;BME280;60657;50.122;14.468;2023-05-16T08:07:17;97861.66149855264;;;20.17738612954909;56.68978408484016
71642;BME280;60657;50.122;14.468;2023-05-16T08:10:29;97868.49646158217;;;20.377660791943242;55.86579690241855
71642;BME280;60657;50.122;14.468;2023-05-16T08:13:41;97876.627229071;;;20.465781643396653;56.96063172350652
71642;BME280;60657;50.122;14.468;2023-05-16T08:16:53;97882.43712964364;;;21.13603418020905;54.421911955443655
71642;BME280;60657;50.122;14.468;2023-05-16T08:20:06;97895.79263467723;;;21.34164950026704;53.90501258869306
71642;BME280;60657;50.122;14.468;2023-05-16T08:23:19;97897.14954954885;;;21.806286717021436;52.66521705958648
71642;BME280;60657;50.122;14.468;2023-05-16T08:26:32;97892.35359160301;;;22.051956969558248;52.211261158159765
71642;BME280;60657;50.122;14.468;2023-05-16T08:29:44;97888.92333985804;;;22.009231708247498;52.25894560158694
71642;BME280;60657;50.122;14.468;2023-05-16T08:32:56;97892.78741161143;;;22.02258335240711;52.45731288624399
71642;BME280;60657;50.122;14.468;2023-05-16T08:36:09;97886.99315750536;;;22.37239642938887;51.660028992141605
71642;BME280;60657;50.122;14.468;2023-05-16T08:39:21;97883.7982770334;;;22.313649195086597;51.88700694285496
71642;BME280;60657;50.122;14.468;2023-05-16T08:42:34;97904.81480811877;;;21.614023041123062;53.52544441901274
71642;BME280;60657;50.122;14.468;2023-05-16T08:45:46;97906.1494223321;;;21.816968032349124;53.29274433508812
71642;BME280;60657;50.122;14.468;2023-05-16T08:48:59;97907.04852459535;;;21.357671473258563;54.208285648889905
71642;BME280;60657;50.122;14.468;2023-05-16T08:52:11;97910.32704166495;;;21.296253910124364;53.87830930037384
71642;BME280;60657;50.122;14.468;2023-05-16T08:55:28;97911.07347173696;;;21.280231937132825;54.68322270542458
71642;BME280;60657;50.122;14.468;2023-05-16T08:58:41;97910.52261156969;;;21.069275959411;55.289768825818264
71642;BME280;60657;50.122;14.468;2023-05-16T09:01:54;97911.55767921997;;;21.071946288242927;55.23445487144274
71642;BME280;60657;50.122;14.468;2023-05-16T09:05:10;97909.19750254684;;;21.14671549553674;55.87533379110399
71642;BME280;60657;50.122;14.468;2023-05-16T09:08:23;97916.97624194728;;;20.9597924773022;55.76279850461585
71642;BME280;60657;50.122;14.468;2023-05-16T09:11:37;97923.02225845709;;;20.642023346303503;56.907225146868086
71642;BME280;60657;50.122;14.468;2023-05-16T09:14:49;97920.28424229225;;;20.04654001678493;57.410772869459066
71642;BME280;60657;50.122;14.468;2023-05-16T09:18:01;97921.76799944184;;;20.001144426642256;58.97100785839628
71642;BME280;60657;50.122;14.468;2023-05-16T09:21:14;97920.02468880352;;;20.436408026245516;57.69306477454795
71642;BME280;60657;50.122;14.468;2023-05-16T09:24:27;97925.60082058467;;;20.882352941176464;55.61402304112306
71642;BME280;60657;50.122;14.468;2023-05-16T09:27:39;97919.03415917151;;;21.224155031662477;54.14915693904021
71642;BME280;60657;50.122;14.468;2023-05-16T09:30:53;97929.84203235668;;;20.839627679865714;54.824368657969025
71642;BME280;60657;50.122;14.468;2023-05-16T09:34:06;97921.21784760013;;;20.839627679865714;55.85435263599603
71642;BME280;60657;50.122;14.468;2023-05-16T09:37:20;97916.79219351808;;;20.703440909437703;55.26115815976196
71642;BME280;60657;50.122;14.468;2023-05-16T09:40:32;97921.52125760594;;;20.636682688639652;55.90775921263447
71642;BME280;60657;50.122;14.468;2023-05-16T09:43:45;97910.37252129674;;;20.64736400396734;54.74235141527428
71642;BME280;60657;50.122;14.468;2023-05-16T09:46:57;97914.4724887229;;;20.727473868925003;55.17341878385596
71642;BME280;60657;50.122;14.468;2023-05-16T09:50:10;97916.32227159904;;;20.540550850690465;55.0055695429923
71642;BME280;60657;50.122;14.468;2023-05-16T09:53:24;97908.52225655208;;;20.828946364538027;55.522468909742884
71642;BME280;60657;50.122;14.468;2023-05-16T09:56:47;97906.53742832752;;;21.54726482032501;53.395742732890824
71642;BME280;60657;50.122;14.468;2023-05-16T10:00:01;97922.18050067565;;;21.371023117418176;53.68757152666514
71642;BME280;60657;50.122;14.468;2023-05-16T10:03:18;97911.8015124282;;;21.069275959411;54.341802090486
71642;BME280;60657;50.122;14.468;2023-05-16T10:06:30;97915.2653556345;;;20.778210116731515;54.946440833142596
71642;BME280;60657;50.122;14.468;2023-05-16T10:09:44;97908.74561463129;;;20.399023422598617;56.09086747539483
71642;BME280;60657;50.122;14.468;2023-05-16T10:12:58;97908.8133150552;;;20.206759746700243;57.63775082017243
71642;BME280;60657;50.122;14.468;2023-05-16T10:16:16;97912.25000112019;;;19.755474174105444;57.67589837491417
71642;BME280;60657;50.122;14.468;2023-05-16T10:19:33;97901.87969326749;;;19.961089494163417;58.789806973373004
71642;BME280;60657;50.122;14.468;2023-05-16T10:22:49;97899.05711089351;;;19.86228732738232;59.71488517586023
71642;BME280;60657;50.122;14.468;2023-05-16T10:26:09;97885.69787000795;;;19.90768291752498;58.70016021972991
71642;BME280;60657;50.122;14.468;2023-05-16T10:29:23;97886.11728896781;;;20.129320210574505;58.51895933470665
71642;BME280;60657;50.122;14.468;2023-05-16T10:32:36;97881.6802587774;;;20.091935606927592;58.072632944228275
71642;BME280;60657;50.122;14.468;2023-05-16T10:35:50;97892.94767633147;;;19.696726939803156;59.51461051346608
71642;BME280;60657;50.122;14.468;2023-05-16T10:39:03;97891.17748146357;;;19.76081483176928;60.535057602807655
71642;BME280;60657;50.122;14.468;2023-05-16T10:42:16;97885.36967115794;;;19.65667200732433;60.29091325246051
71642;BME280;60657;50.122;14.468;2023-05-16T10:45:29;97904.86557129979;;;19.86228732738232;58.9385824368658
71642;BME280;60657;50.122;14.468;2023-05-16T10:48:42;97893.24886966063;;;19.856946669718468;58.00396734569314
71642;BME280;60657;50.122;14.468;2023-05-16T10:52:03;97891.2807044423;;;19.963759822995343;58.52277409018082
71642;BME280;60657;50.122;14.468;2023-05-16T10:55:17;97881.72953169409;;;19.958419165331506;58.43312733653772
71642;BME280;60657;50.122;14.468;2023-05-16T10:58:38;97871.396490655;;;19.750133516441593;58.49797817959869
71642;BME280;60657;50.122;14.468;2023-05-16T11:01:53;97869.82167134169;;;19.800869764248105;58.76310368505379
71642;BME280;60657;50.122;14.468;2023-05-16T11:05:07;97859.9381161532;;;19.40566109712367;58.44838635843442
71642;BME280;60657;50.122;14.468;2023-05-16T11:08:29;97864.98885768966;;;19.579232471198594;59.14076447699702
71642;BME280;60657;50.122;14.468;2023-05-16T11:11:42;97872.44433949744;;;19.245441367208358;59.15602349889372
71642;BME280;60657;50.122;14.468;2023-05-16T11:15:01;97867.13993589458;;;19.19737544823377;58.957656214236664
71642;BME280;60657;50.122;14.468;2023-05-16T11:18:31;97855.20379316248;;;18.97840848401617;59.48790722514687
71642;BME280;60657;50.122;14.468;2023-05-16T11:22:48;97866.09001796073;;;18.71404592965591;60.3385976958877
71642;BME280;60657;50.122;14.468;2023-05-16T11:26:06;97880.65014976799;;;18.551155870908673;60.81162737468529
71642;BME280;60657;50.122;14.468;2023-05-16T11:29:24;97889.8427939955;;;18.238727397573818;61.24650949874113
71642;BME280;60657;50.122;14.468;2023-05-16T11:32:40;97890.74325491974;;;18.027771419851987;62.21545738918135
71642;BME280;60657;50.122;14.468;2023-05-16T11:36:02;97900.76735757758;;;17.816815442130157;62.89448386358434
71642;BME280;60657;50.122;14.468;2023-05-16T11:39:17;97902.73376348782;;;17.784771496147094;62.80102235446708
71642;BME280;60657;50.122;14.468;2023-05-16T11:42:30;97904.59092700161;;;17.683299000534063;62.682764934767675